sensor_id;sensor_type;location;lat;lon;timestamp;P1;durP1;ratioP1;P2;durP2;ratioP2
18114;SDS011;9184;54.390;18.620;2022-12-24T00:00:25;26.60;;;13.37;;
18114;SDS011;9184;54.390;18.620;2022-12-24T00:00:56;20.83;;;12.07;;
18114;SDS011;9184;54.390;18.620;2022-12-24T00:01:26;24.77;;;11.80;;
18114;SDS011;9184;54.390;18.620;2022-12-24T00:01:58;19.80;;;12.40;;
18114;SDS011;9184;54.390;18.620;2022-12-24T00:02:28;21.60;;;13.33;;
18114;SDS011;9184;54.390;18.620;2022-12-24T00:02:59;20.43;;;13.03;;
18114;SDS011;9184;54.390;18.620;2022-12-24T00:03:30;21.33;;;12.37;;
18114;SDS011;9184;54.390;18.620;2022-12-24T00:04:01;20.83;;;13.20;;
18114;SDS011;9184;54.390;18.620;2022-12-24T00:04:31;22.57;;;14.07;;
18114;SDS011;9184;54.390;18.620;2022-12-24T00:05:03;21.90;;;13.43;;
18114;SDS011;9184;54.390;18.620;2022-12-24T00:05:37;72.30;;;16.73;;
18114;SDS011;9184;54.390;18.620;2022-12-24T00:06:08;21.80;;;12.30;;
18114;SDS011;9184;54.390;18.620;2022-12-24T00:06:39;20.63;;;12.77;;
18114;SDS011;9184;54.390;18.620;2022-12-24T00:07:11;24.73;;;11.80;;
18114;SDS011;9184;54.390;18.620;2022-12-24T00:07:41;19.23;;;11.33;;
18114;SDS011;9184;54.390;18.620;2022-12-24T00:08:12;24.60;;;11.37;;
18114;SDS011;9184;54.390;18.620;2022-12-24T00:08:43;31.07;;;12.80;;
18114;SDS011;9184;54.390;18.620;2022-12-24T00:09:14;21.70;;;11.67;;
18114;SDS011;9184;54.390;18.620;2022-12-24T00:09:44;17.13;;;10.50;;
18114;SDS011;9184;54.390;18.620;2022-12-24T00:10:15;53.13;;;12.53;;
18114;SDS011;9184;54.390;18.620;2022-12-24T00:10:48;19.50;;;11.47;;
18114;SDS011;9184;54.390;18.620;2022-12-24T00:11:18;22.07;;;10.53;;
18114;SDS011;9184;54.390;18.620;2022-12-24T00:11:50;18.03;;;10.13;;
18114;SDS011;9184;54.390;18.620;2022-12-24T00:12:20;20.10;;;10.47;;
18114;SDS011;9184;54.390;18.620;2022-12-24T00:12:51;19.87;;;10.73;;
18114;SDS011;9184;54.390;18.620;2022-12-24T00:13:25;31.77;;;11.63;;
18114;SDS011;9184;54.390;18.620;2022-12-24T00:13:56;19.77;;;11.60;;
18114;SDS011;9184;54.390;18.620;2022-12-24T00:14:28;20.73;;;10.50;;
18114;SDS011;9184;54.390;18.620;2022-12-24T00:14:58;14.90;;;9.80;;
18114;SDS011;9184;54.390;18.620;2022-12-24T00:15:29;20.37;;;10.20;;
18114;SDS011;9184;54.390;18.620;2022-12-24T00:15:59;21.40;;;10.83;;
18114;SDS011;9184;54.390;18.620;2022-12-24T00:16:31;14.53;;;9.50;;
18114;SDS011;9184;54.390;18.620;2022-12-24T00:17:01;19.03;;;10.00;;
18114;SDS011;9184;54.390;18.620;2022-12-24T00:17:32;17.27;;;10.10;;
18114;SDS011;9184;54.390;18.620;2022-12-24T00:18:03;19.23;;;10.93;;
18114;SDS011;9184;54.390;18.620;2022-12-24T00:18:34;20.77;;;11.07;;
18114;SDS011;9184;54.390;18.620;2022-12-24T00:19:04;45.00;;;13.90;;
18114;SDS011;9184;54.390;18.620;2022-12-24T00:19:36;19.70;;;11.20;;
18114;SDS011;9184;54.390;18.620;2022-12-24T00:20:07;20.23;;;11.17;;
18114;SDS011;9184;54.390;18.620;2022-12-24T00:20:39;18.40;;;11.53;;
18114;SDS011;9184;54.390;18.620;2022-12-24T00:21:10;22.37;;;11.33;;
18114;SDS011;9184;54.390;18.620;2022-12-24T00:21:41;20.80;;;11.30;;
18114;SDS011;9184;54.390;18.620;2022-12-24T00:22:11;18.67;;;10.77;;
18114;SDS011;9184;54.390;18.620;2022-12-24T00:22:42;18.03;;;10.47;;
18114;SDS011;9184;54.390;18.620;2022-12-24T00:23:14;28.23;;;10.97;;
18114;SDS011;9184;54.390;18.620;2022-12-24T00:23:44;19.33;;;10.70;;
18114;SDS011;9184;54.390;18.620;2022-12-24T00:24:15;23.60;;;10.60;;
18114;SDS011;9184;54.390;18.620;2022-12-24T00:24:46;19.47;;;11.30;;
18114;SDS011;9184;54.390;18.620;2022-12-24T00:25:17;17.70;;;11.10;;
18114;SDS011;9184;54.390;18.620;2022-12-24T00:25:47;22.70;;;11.80;;
18114;SDS011;9184;54.390;18.620;2022-12-24T00:26:18;20.50;;;10.70;;
18114;SDS011;9184;54.390;18.620;2022-12-24T00:26:49;25.93;;;11.40;;
18114;SDS011;9184;54.390;18.620;2022-12-24T00:27:20;19.27;;;10.83;;
18114;SDS011;9184;54.390;18.620;2022-12-24T00:27:50;16.83;;;10.37;;
18114;SDS011;9184;54.390;18.620;2022-12-24T00:28:21;18.17;;;10.90;;
18114;SDS011;9184;54.390;18.620;2022-12-24T00:28:52;17.90;;;11.33;;
18114;SDS011;9184;54.390;18.620;2022-12-24T00:29:23;21.40;;;12.47;;
18114;SDS011;9184;54.390;18.620;2022-12-24T00:29:53;22.47;;;13.13;;
18114;SDS011;9184;54.390;18.620;2022-12-24T00:30:25;24.30;;;13.20;;
18114;SDS011;9184;54.390;18.620;2022-12-24T00:30:56;23.10;;;11.93;;
18114;SDS011;9184;54.390;18.620;2022-12-24T00:31:26;24.97;;;11.63;;
18114;SDS011;9184;54.390;18.620;2022-12-24T00:31:58;22.67;;;12.63;;
18114;SDS011;9184;54.390;18.620;2022-12-24T00:32:28;37.73;;;15.20;;
18114;SDS011;9184;54.390;18.620;2022-12-24T00:32:59;23.13;;;13.40;;
18114;SDS011;9184;54.390;18.620;2022-12-24T00:33:31;29.83;;;13.93;;
18114;SDS011;9184;54.390;18.620;2022-12-24T00:34:01;26.83;;;14.90;;
18114;SDS011;9184;54.390;18.620;2022-12-24T00:34:32;36.13;;;15.77;;
18114;SDS011;9184;54.390;18.620;2022-12-24T00:35:02;30.67;;;16.50;;
18114;SDS011;9184;54.390;18.620;2022-12-24T00:35:34;27.63;;;15.87;;
18114;SDS011;9184;54.390;18.620;2022-12-24T00:36:06;34.77;;;15.60;;
18114;SDS011;9184;54.390;18.620;2022-12-24T00:36:37;30.53;;;16.57;;
18114;SDS011;9184;54.390;18.620;2022-12-24T00:37:08;90.90;;;21.40;;
18114;SDS011;9184;54.390;18.620;2022-12-24T00:37:38;27.40;;;17.43;;
18114;SDS011;9184;54.390;18.620;2022-12-24T00:38:09;27.87;;;16.47;;
18114;SDS011;9184;54.390;18.620;2022-12-24T00:38:39;44.87;;;17.73;;
18114;SDS011;9184;54.390;18.620;2022-12-24T00:39:11;33.13;;;18.03;;
18114;SDS011;9184;54.390;18.620;2022-12-24T00:39:41;32.17;;;16.13;;
18114;SDS011;9184;54.390;18.620;2022-12-24T00:40:12;140.50;;;22.23;;
18114;SDS011;9184;54.390;18.620;2022-12-24T00:40:42;25.87;;;16.13;;
18114;SDS011;9184;54.390;18.620;2022-12-24T00:41:14;31.73;;;16.33;;
18114;SDS011;9184;54.390;18.620;2022-12-24T00:41:53;24.77;;;15.00;;
18114;SDS011;9184;54.390;18.620;2022-12-24T00:42:24;34.93;;;16.90;;
18114;SDS011;9184;54.390;18.620;2022-12-24T00:42:55;28.13;;;15.37;;
18114;SDS011;9184;54.390;18.620;2022-12-24T00:43:26;28.77;;;16.13;;
18114;SDS011;9184;54.390;18.620;2022-12-24T00:43:58;30.73;;;15.27;;
18114;SDS011;9184;54.390;18.620;2022-12-24T00:44:30;31.30;;;15.30;;
18114;SDS011;9184;54.390;18.620;2022-12-24T00:45:00;23.63;;;14.73;;
18114;SDS011;9184;54.390;18.620;2022-12-24T00:45:31;24.57;;;14.83;;
18114;SDS011;9184;54.390;18.620;2022-12-24T00:46:03;29.73;;;15.00;;
18114;SDS011;9184;54.390;18.620;2022-12-24T00:46:35;22.00;;;14.07;;
18114;SDS011;9184;54.390;18.620;2022-12-24T00:47:06;93.30;;;18.60;;
18114;SDS011;9184;54.390;18.620;2022-12-24T00:47:37;25.83;;;13.70;;
18114;SDS011;9184;54.390;18.620;2022-12-24T00:48:08;27.33;;;14.67;;
18114;SDS011;9184;54.390;18.620;2022-12-24T00:48:38;23.20;;;13.90;;
18114;SDS011;9184;54.390;18.620;2022-12-24T00:49:09;23.70;;;14.30;;
18114;SDS011;9184;54.390;18.620;2022-12-24T00:49:41;30.90;;;14.97;;
18114;SDS011;9184;54.390;18.620;2022-12-24T00:50:12;24.70;;;15.33;;
18114;SDS011;9184;54.390;18.620;2022-12-24T00:50:42;35.37;;;16.60;;
18114;SDS011;9184;54.390;18.620;2022-12-24T00:51:14;26.10;;;16.10;;
18114;SDS011;9184;54.390;18.620;2022-12-24T00:51:45;52.10;;;27.10;;
18114;SDS011;9184;54.390;18.620;2022-12-24T00:52:16;42.30;;;27.40;;
18114;SDS011;9184;54.390;18.620;2022-12-24T00:52:47;40.23;;;24.13;;
18114;SDS011;9184;54.390;18.620;2022-12-24T00:53:18;36.27;;;23.60;;
18114;SDS011;9184;54.390;18.620;2022-12-24T00:53:49;29.73;;;17.77;;
18114;SDS011;9184;54.390;18.620;2022-12-24T00:54:20;26.70;;;15.50;;
18114;SDS011;9184;54.390;18.620;2022-12-24T00:54:51;33.20;;;21.97;;
18114;SDS011;9184;54.390;18.620;2022-12-24T00:55:21;27.00;;;16.70;;
18114;SDS011;9184;54.390;18.620;2022-12-24T00:55:52;32.10;;;17.30;;
18114;SDS011;9184;54.390;18.620;2022-12-24T00:56:23;24.23;;;15.70;;
18114;SDS011;9184;54.390;18.620;2022-12-24T00:56:54;36.50;;;20.03;;
18114;SDS011;9184;54.390;18.620;2022-12-24T00:57:24;34.70;;;19.67;;
18114;SDS011;9184;54.390;18.620;2022-12-24T00:57:56;34.63;;;18.30;;
18114;SDS011;9184;54.390;18.620;2022-12-24T00:58:26;28.30;;;16.80;;
18114;SDS011;9184;54.390;18.620;2022-12-24T00:58:57;32.47;;;20.60;;
18114;SDS011;9184;54.390;18.620;2022-12-24T00:59:27;42.70;;;27.20;;
18114;SDS011;9184;54.390;18.620;2022-12-24T00:59:59;39.97;;;23.73;;
18114;SDS011;9184;54.390;18.620;2022-12-24T01:00:29;36.47;;;21.70;;
18114;SDS011;9184;54.390;18.620;2022-12-24T01:01:00;39.87;;;22.20;;
18114;SDS011;9184;54.390;18.620;2022-12-24T01:01:30;32.83;;;19.50;;
18114;SDS011;9184;54.390;18.620;2022-12-24T01:02:02;32.33;;;18.20;;
18114;SDS011;9184;54.390;18.620;2022-12-24T01:02:32;33.80;;;17.97;;
18114;SDS011;9184;54.390;18.620;2022-12-24T01:03:03;33.27;;;17.53;;
18114;SDS011;9184;54.390;18.620;2022-12-24T01:03:34;29.97;;;19.90;;
18114;SDS011;9184;54.390;18.620;2022-12-24T01:04:05;41.70;;;19.20;;
18114;SDS011;9184;54.390;18.620;2022-12-24T01:04:54;36.87;;;18.17;;
18114;SDS011;9184;54.390;18.620;2022-12-24T01:05:50;28.50;;;17.03;;
18114;SDS011;9184;54.390;18.620;2022-12-24T01:06:22;34.23;;;18.63;;
18114;SDS011;9184;54.390;18.620;2022-12-24T01:06:53;37.17;;;20.80;;
18114;SDS011;9184;54.390;18.620;2022-12-24T01:07:25;31.17;;;18.17;;
18114;SDS011;9184;54.390;18.620;2022-12-24T01:07:55;29.00;;;17.37;;
18114;SDS011;9184;54.390;18.620;2022-12-24T01:08:26;33.10;;;20.10;;
18114;SDS011;9184;54.390;18.620;2022-12-24T01:08:57;31.00;;;20.37;;
18114;SDS011;9184;54.390;18.620;2022-12-24T01:09:28;30.90;;;22.13;;
18114;SDS011;9184;54.390;18.620;2022-12-24T01:09:58;31.30;;;19.90;;
18114;SDS011;9184;54.390;18.620;2022-12-24T01:10:29;29.83;;;19.03;;
18114;SDS011;9184;54.390;18.620;2022-12-24T01:11:00;28.70;;;18.13;;
18114;SDS011;9184;54.390;18.620;2022-12-24T01:11:32;49.47;;;20.63;;
18114;SDS011;9184;54.390;18.620;2022-12-24T01:12:03;32.57;;;17.03;;
18114;SDS011;9184;54.390;18.620;2022-12-24T01:12:34;85.87;;;19.93;;
18114;SDS011;9184;54.390;18.620;2022-12-24T01:13:05;42.23;;;17.23;;
18114;SDS011;9184;54.390;18.620;2022-12-24T01:13:36;46.20;;;16.47;;
18114;SDS011;9184;54.390;18.620;2022-12-24T01:14:07;25.63;;;16.80;;
18114;SDS011;9184;54.390;18.620;2022-12-24T01:14:38;32.27;;;17.67;;
18114;SDS011;9184;54.390;18.620;2022-12-24T01:15:08;48.40;;;17.97;;
18114;SDS011;9184;54.390;18.620;2022-12-24T01:15:39;29.97;;;16.93;;
18114;SDS011;9184;54.390;18.620;2022-12-24T01:16:12;30.70;;;16.33;;
18114;SDS011;9184;54.390;18.620;2022-12-24T01:16:43;26.93;;;15.23;;
18114;SDS011;9184;54.390;18.620;2022-12-24T01:17:13;30.33;;;16.87;;
18114;SDS011;9184;54.390;18.620;2022-12-24T01:17:44;26.57;;;16.20;;
18114;SDS011;9184;54.390;18.620;2022-12-24T01:18:15;26.40;;;15.60;;
18114;SDS011;9184;54.390;18.620;2022-12-24T01:18:46;28.60;;;16.77;;
18114;SDS011;9184;54.390;18.620;2022-12-24T01:19:17;37.03;;;17.83;;
18114;SDS011;9184;54.390;18.620;2022-12-24T01:19:48;43.33;;;22.13;;
18114;SDS011;9184;54.390;18.620;2022-12-24T01:20:19;29.63;;;17.07;;
18114;SDS011;9184;54.390;18.620;2022-12-24T01:20:54;38.37;;;20.43;;
18114;SDS011;9184;54.390;18.620;2022-12-24T01:21:27;29.80;;;18.60;;
18114;SDS011;9184;54.390;18.620;2022-12-24T01:21:58;23.13;;;13.47;;
18114;SDS011;9184;54.390;18.620;2022-12-24T01:22:28;64.90;;;16.10;;
18114;SDS011;9184;54.390;18.620;2022-12-24T01:23:00;28.60;;;13.97;;
18114;SDS011;9184;54.390;18.620;2022-12-24T01:23:30;22.40;;;13.10;;
18114;SDS011;9184;54.390;18.620;2022-12-24T01:24:01;33.90;;;14.83;;
18114;SDS011;9184;54.390;18.620;2022-12-24T01:24:32;29.57;;;15.10;;
18114;SDS011;9184;54.390;18.620;2022-12-24T01:25:03;26.17;;;14.87;;
18114;SDS011;9184;54.390;18.620;2022-12-24T01:25:36;24.80;;;14.43;;
18114;SDS011;9184;54.390;18.620;2022-12-24T01:26:08;29.53;;;14.07;;
18114;SDS011;9184;54.390;18.620;2022-12-24T01:26:41;24.37;;;13.80;;
18114;SDS011;9184;54.390;18.620;2022-12-24T01:27:11;24.43;;;13.43;;
18114;SDS011;9184;54.390;18.620;2022-12-24T01:27:42;22.47;;;13.43;;
18114;SDS011;9184;54.390;18.620;2022-12-24T01:28:14;21.10;;;13.13;;
18114;SDS011;9184;54.390;18.620;2022-12-24T01:28:45;28.57;;;14.67;;
18114;SDS011;9184;54.390;18.620;2022-12-24T01:29:15;44.27;;;15.83;;
18114;SDS011;9184;54.390;18.620;2022-12-24T01:29:46;27.37;;;14.40;;
18114;SDS011;9184;54.390;18.620;2022-12-24T01:30:18;25.37;;;14.93;;
18114;SDS011;9184;54.390;18.620;2022-12-24T01:30:48;22.30;;;13.83;;
18114;SDS011;9184;54.390;18.620;2022-12-24T01:31:19;24.73;;;13.20;;
18114;SDS011;9184;54.390;18.620;2022-12-24T01:31:49;23.20;;;12.43;;
18114;SDS011;9184;54.390;18.620;2022-12-24T01:32:21;26.20;;;12.90;;
18114;SDS011;9184;54.390;18.620;2022-12-24T01:32:51;22.33;;;13.93;;
18114;SDS011;9184;54.390;18.620;2022-12-24T01:33:21;26.57;;;13.90;;
18114;SDS011;9184;54.390;18.620;2022-12-24T01:33:53;24.20;;;13.20;;
18114;SDS011;9184;54.390;18.620;2022-12-24T01:34:23;23.27;;;13.53;;
18114;SDS011;9184;54.390;18.620;2022-12-24T01:34:54;28.37;;;14.87;;
18114;SDS011;9184;54.390;18.620;2022-12-24T01:35:25;22.87;;;13.47;;
18114;SDS011;9184;54.390;18.620;2022-12-24T01:35:56;21.83;;;14.03;;
18114;SDS011;9184;54.390;18.620;2022-12-24T01:36:28;40.30;;;14.47;;
18114;SDS011;9184;54.390;18.620;2022-12-24T01:36:58;28.57;;;14.03;;
18114;SDS011;9184;54.390;18.620;2022-12-24T01:37:30;25.63;;;14.30;;
18114;SDS011;9184;54.390;18.620;2022-12-24T01:38:00;26.87;;;13.17;;
18114;SDS011;9184;54.390;18.620;2022-12-24T01:38:31;61.77;;;16.03;;
18114;SDS011;9184;54.390;18.620;2022-12-24T01:39:01;23.23;;;13.33;;
18114;SDS011;9184;54.390;18.620;2022-12-24T01:39:33;29.83;;;14.93;;
18114;SDS011;9184;54.390;18.620;2022-12-24T01:40:04;23.67;;;13.93;;
18114;SDS011;9184;54.390;18.620;2022-12-24T01:40:53;26.87;;;13.93;;
18114;SDS011;9184;54.390;18.620;2022-12-24T01:41:42;25.05;;;12.93;;
18114;SDS011;9184;54.390;18.620;2022-12-24T01:42:31;21.73;;;12.40;;
18114;SDS011;9184;54.390;18.620;2022-12-24T01:43:21;42.13;;;14.20;;
18114;SDS011;9184;54.390;18.620;2022-12-24T01:43:57;27.00;;;13.30;;
18114;SDS011;9184;54.390;18.620;2022-12-24T01:44:28;23.03;;;12.67;;
18114;SDS011;9184;54.390;18.620;2022-12-24T01:45:47;24.90;;;12.67;;
18114;SDS011;9184;54.390;18.620;2022-12-24T01:46:18;84.30;;;16.03;;
18114;SDS011;9184;54.390;18.620;2022-12-24T01:46:51;27.63;;;13.90;;
18114;SDS011;9184;54.390;18.620;2022-12-24T01:47:23;22.97;;;13.37;;
18114;SDS011;9184;54.390;18.620;2022-12-24T01:47:54;24.77;;;13.90;;
18114;SDS011;9184;54.390;18.620;2022-12-24T01:48:28;24.87;;;13.90;;
18114;SDS011;9184;54.390;18.620;2022-12-24T01:49:02;31.07;;;15.37;;
18114;SDS011;9184;54.390;18.620;2022-12-24T01:49:33;29.47;;;14.90;;
18114;SDS011;9184;54.390;18.620;2022-12-24T01:50:11;30.30;;;15.77;;
18114;SDS011;9184;54.390;18.620;2022-12-24T01:50:45;27.20;;;15.27;;
18114;SDS011;9184;54.390;18.620;2022-12-24T01:51:16;41.00;;;16.43;;
18114;SDS011;9184;54.390;18.620;2022-12-24T01:51:50;30.33;;;14.40;;
18114;SDS011;9184;54.390;18.620;2022-12-24T01:52:23;40.00;;;16.60;;
18114;SDS011;9184;54.390;18.620;2022-12-24T01:52:55;242.77;;;31.13;;
18114;SDS011;9184;54.390;18.620;2022-12-24T01:53:26;31.83;;;16.10;;
18114;SDS011;9184;54.390;18.620;2022-12-24T01:53:58;43.80;;;18.70;;
18114;SDS011;9184;54.390;18.620;2022-12-24T01:54:31;37.47;;;19.40;;
18114;SDS011;9184;54.390;18.620;2022-12-24T01:55:05;39.57;;;19.80;;
18114;SDS011;9184;54.390;18.620;2022-12-24T01:55:39;340.20;;;38.77;;
18114;SDS011;9184;54.390;18.620;2022-12-24T01:56:10;52.50;;;20.50;;
18114;SDS011;9184;54.390;18.620;2022-12-24T01:56:43;37.43;;;19.47;;
18114;SDS011;9184;54.390;18.620;2022-12-24T01:57:15;41.75;;;20.83;;
18114;SDS011;9184;54.390;18.620;2022-12-24T01:57:47;45.80;;;21.00;;
18114;SDS011;9184;54.390;18.620;2022-12-24T01:58:20;41.00;;;18.93;;
18114;SDS011;9184;54.390;18.620;2022-12-24T01:58:53;423.83;;;51.47;;
18114;SDS011;9184;54.390;18.620;2022-12-24T01:59:24;59.40;;;20.40;;
18114;SDS011;9184;54.390;18.620;2022-12-24T01:59:56;41.80;;;20.93;;
18114;SDS011;9184;54.390;18.620;2022-12-24T02:00:27;83.10;;;23.13;;
18114;SDS011;9184;54.390;18.620;2022-12-24T02:00:58;106.27;;;24.87;;
18114;SDS011;9184;54.390;18.620;2022-12-24T02:01:29;45.60;;;21.50;;
18114;SDS011;9184;54.390;18.620;2022-12-24T02:02:00;43.23;;;21.57;;
18114;SDS011;9184;54.390;18.620;2022-12-24T02:02:31;47.53;;;21.37;;
18114;SDS011;9184;54.390;18.620;2022-12-24T02:03:03;40.40;;;21.00;;
18114;SDS011;9184;54.390;18.620;2022-12-24T02:03:33;36.90;;;20.80;;
18114;SDS011;9184;54.390;18.620;2022-12-24T02:04:07;116.40;;;26.97;;
18114;SDS011;9184;54.390;18.620;2022-12-24T02:04:39;44.87;;;21.70;;
18114;SDS011;9184;54.390;18.620;2022-12-24T02:05:13;35.03;;;18.67;;
18114;SDS011;9184;54.390;18.620;2022-12-24T02:05:45;44.70;;;19.90;;
18114;SDS011;9184;54.390;18.620;2022-12-24T02:06:17;38.33;;;20.00;;
18114;SDS011;9184;54.390;18.620;2022-12-24T02:06:52;39.67;;;19.80;;
18114;SDS011;9184;54.390;18.620;2022-12-24T02:07:22;37.97;;;20.33;;
18114;SDS011;9184;54.390;18.620;2022-12-24T02:07:53;114.50;;;24.17;;
18114;SDS011;9184;54.390;18.620;2022-12-24T02:08:25;33.07;;;19.27;;
18114;SDS011;9184;54.390;18.620;2022-12-24T02:09:09;30.57;;;18.10;;
18114;SDS011;9184;54.390;18.620;2022-12-24T02:09:39;36.17;;;19.27;;
18114;SDS011;9184;54.390;18.620;2022-12-24T02:10:11;37.63;;;18.17;;
18114;SDS011;9184;54.390;18.620;2022-12-24T02:10:42;38.70;;;18.97;;
18114;SDS011;9184;54.390;18.620;2022-12-24T02:11:13;36.17;;;17.80;;
18114;SDS011;9184;54.390;18.620;2022-12-24T02:11:45;31.00;;;17.37;;
18114;SDS011;9184;54.390;18.620;2022-12-24T02:12:16;40.63;;;19.20;;
18114;SDS011;9184;54.390;18.620;2022-12-24T02:12:46;42.13;;;18.23;;
18114;SDS011;9184;54.390;18.620;2022-12-24T02:13:18;32.17;;;16.93;;
18114;SDS011;9184;54.390;18.620;2022-12-24T02:13:51;37.53;;;17.40;;
18114;SDS011;9184;54.390;18.620;2022-12-24T02:14:22;39.67;;;19.30;;
18114;SDS011;9184;54.390;18.620;2022-12-24T02:14:55;36.83;;;19.27;;
18114;SDS011;9184;54.390;18.620;2022-12-24T02:15:26;38.77;;;18.83;;
18114;SDS011;9184;54.390;18.620;2022-12-24T02:16:00;32.60;;;17.93;;
18114;SDS011;9184;54.390;18.620;2022-12-24T02:16:37;31.63;;;18.03;;
18114;SDS011;9184;54.390;18.620;2022-12-24T02:17:13;35.77;;;17.67;;
18114;SDS011;9184;54.390;18.620;2022-12-24T02:17:48;52.53;;;17.17;;
18114;SDS011;9184;54.390;18.620;2022-12-24T02:18:22;49.67;;;18.03;;
18114;SDS011;9184;54.390;18.620;2022-12-24T02:18:55;36.77;;;18.47;;
18114;SDS011;9184;54.390;18.620;2022-12-24T02:19:38;34.30;;;17.43;;
18114;SDS011;9184;54.390;18.620;2022-12-24T02:21:07;54.27;;;18.40;;
18114;SDS011;9184;54.390;18.620;2022-12-24T02:21:52;33.97;;;16.50;;
18114;SDS011;9184;54.390;18.620;2022-12-24T02:22:26;36.40;;;17.57;;
18114;SDS011;9184;54.390;18.620;2022-12-24T02:23:06;34.07;;;17.57;;
18114;SDS011;9184;54.390;18.620;2022-12-24T02:24:01;39.23;;;18.27;;
18114;SDS011;9184;54.390;18.620;2022-12-24T02:24:54;47.23;;;16.80;;
18114;SDS011;9184;54.390;18.620;2022-12-24T02:25:39;27.93;;;14.87;;
18114;SDS011;9184;54.390;18.620;2022-12-24T02:26:17;34.40;;;16.07;;
18114;SDS011;9184;54.390;18.620;2022-12-24T02:27:02;35.77;;;15.67;;
18114;SDS011;9184;54.390;18.620;2022-12-24T02:27:38;33.97;;;18.33;;
18114;SDS011;9184;54.390;18.620;2022-12-24T02:28:14;35.97;;;16.93;;
18114;SDS011;9184;54.390;18.620;2022-12-24T02:28:53;29.93;;;16.93;;
18114;SDS011;9184;54.390;18.620;2022-12-24T02:29:45;32.50;;;15.70;;
18114;SDS011;9184;54.390;18.620;2022-12-24T02:30:19;31.60;;;16.53;;
18114;SDS011;9184;54.390;18.620;2022-12-24T02:30:50;35.43;;;18.40;;
18114;SDS011;9184;54.390;18.620;2022-12-24T02:31:22;37.17;;;20.33;;
18114;SDS011;9184;54.390;18.620;2022-12-24T02:31:57;31.27;;;17.97;;
18114;SDS011;9184;54.390;18.620;2022-12-24T02:32:32;30.17;;;15.67;;
18114;SDS011;9184;54.390;18.620;2022-12-24T02:33:08;37.33;;;20.30;;
18114;SDS011;9184;54.390;18.620;2022-12-24T02:33:44;34.67;;;19.97;;
18114;SDS011;9184;54.390;18.620;2022-12-24T02:34:17;36.00;;;20.00;;
18114;SDS011;9184;54.390;18.620;2022-12-24T02:34:50;30.53;;;17.47;;
18114;SDS011;9184;54.390;18.620;2022-12-24T02:35:25;27.33;;;15.90;;
18114;SDS011;9184;54.390;18.620;2022-12-24T02:35:58;26.83;;;15.27;;
18114;SDS011;9184;54.390;18.620;2022-12-24T02:36:31;25.53;;;13.63;;
18114;SDS011;9184;54.390;18.620;2022-12-24T02:37:03;29.30;;;14.90;;
18114;SDS011;9184;54.390;18.620;2022-12-24T02:37:37;24.80;;;15.13;;
18114;SDS011;9184;54.390;18.620;2022-12-24T02:38:10;29.57;;;13.70;;
18114;SDS011;9184;54.390;18.620;2022-12-24T02:38:43;25.57;;;14.03;;
18114;SDS011;9184;54.390;18.620;2022-12-24T02:39:18;28.50;;;15.40;;
18114;SDS011;9184;54.390;18.620;2022-12-24T02:39:51;26.53;;;15.07;;
18114;SDS011;9184;54.390;18.620;2022-12-24T02:40:24;22.57;;;14.00;;
18114;SDS011;9184;54.390;18.620;2022-12-24T02:40:58;28.90;;;14.80;;
18114;SDS011;9184;54.390;18.620;2022-12-24T02:41:30;23.90;;;14.93;;
18114;SDS011;9184;54.390;18.620;2022-12-24T02:42:22;30.67;;;14.90;;
18114;SDS011;9184;54.390;18.620;2022-12-24T02:42:57;34.43;;;15.33;;
18114;SDS011;9184;54.390;18.620;2022-12-24T02:43:31;29.90;;;14.60;;
18114;SDS011;9184;54.390;18.620;2022-12-24T02:44:02;30.50;;;14.47;;
18114;SDS011;9184;54.390;18.620;2022-12-24T02:44:36;26.40;;;15.00;;
18114;SDS011;9184;54.390;18.620;2022-12-24T02:45:10;24.53;;;14.57;;
18114;SDS011;9184;54.390;18.620;2022-12-24T02:45:43;24.10;;;14.17;;
18114;SDS011;9184;54.390;18.620;2022-12-24T02:46:17;26.20;;;14.53;;
18114;SDS011;9184;54.390;18.620;2022-12-24T02:46:49;25.80;;;14.67;;
18114;SDS011;9184;54.390;18.620;2022-12-24T02:47:21;25.37;;;14.07;;
18114;SDS011;9184;54.390;18.620;2022-12-24T02:47:54;31.13;;;14.80;;
18114;SDS011;9184;54.390;18.620;2022-12-24T02:48:25;25.60;;;14.53;;
18114;SDS011;9184;54.390;18.620;2022-12-24T02:48:56;25.97;;;15.07;;
18114;SDS011;9184;54.390;18.620;2022-12-24T02:49:29;27.50;;;14.63;;
18114;SDS011;9184;54.390;18.620;2022-12-24T02:50:00;21.73;;;14.03;;
18114;SDS011;9184;54.390;18.620;2022-12-24T02:50:30;27.53;;;15.40;;
18114;SDS011;9184;54.390;18.620;2022-12-24T02:51:03;28.73;;;16.07;;
18114;SDS011;9184;54.390;18.620;2022-12-24T02:51:34;25.37;;;16.33;;
18114;SDS011;9184;54.390;18.620;2022-12-24T02:52:04;28.93;;;15.67;;
18114;SDS011;9184;54.390;18.620;2022-12-24T02:52:36;22.93;;;14.03;;
18114;SDS011;9184;54.390;18.620;2022-12-24T02:53:08;201.73;;;28.53;;
18114;SDS011;9184;54.390;18.620;2022-12-24T02:53:39;25.23;;;15.07;;
18114;SDS011;9184;54.390;18.620;2022-12-24T02:54:11;22.90;;;14.20;;
18114;SDS011;9184;54.390;18.620;2022-12-24T02:54:42;22.73;;;13.80;;
18114;SDS011;9184;54.390;18.620;2022-12-24T02:55:13;21.87;;;14.47;;
18114;SDS011;9184;54.390;18.620;2022-12-24T02:55:46;26.63;;;17.73;;
18114;SDS011;9184;54.390;18.620;2022-12-24T02:56:35;24.60;;;16.40;;
18114;SDS011;9184;54.390;18.620;2022-12-24T02:57:07;37.57;;;15.80;;
18114;SDS011;9184;54.390;18.620;2022-12-24T02:57:49;25.50;;;15.17;;
18114;SDS011;9184;54.390;18.620;2022-12-24T02:58:25;79.00;;;17.83;;
18114;SDS011;9184;54.390;18.620;2022-12-24T02:59:50;25.37;;;14.37;;
18114;SDS011;9184;54.390;18.620;2022-12-24T03:00:24;26.50;;;14.83;;
18114;SDS011;9184;54.390;18.620;2022-12-24T03:00:57;21.77;;;14.10;;
18114;SDS011;9184;54.390;18.620;2022-12-24T03:01:47;21.33;;;13.70;;
18114;SDS011;9184;54.390;18.620;2022-12-24T03:02:23;22.30;;;13.80;;
18114;SDS011;9184;54.390;18.620;2022-12-24T03:03:48;29.53;;;13.87;;
18114;SDS011;9184;54.390;18.620;2022-12-24T03:04:21;23.03;;;13.50;;
18114;SDS011;9184;54.390;18.620;2022-12-24T03:05:11;22.30;;;13.33;;
18114;SDS011;9184;54.390;18.620;2022-12-24T03:05:43;27.43;;;14.43;;
18114;SDS011;9184;54.390;18.620;2022-12-24T03:06:18;25.57;;;14.23;;
18114;SDS011;9184;54.390;18.620;2022-12-24T03:06:54;24.07;;;14.03;;
18114;SDS011;9184;54.390;18.620;2022-12-24T03:07:28;28.03;;;14.53;;
18114;SDS011;9184;54.390;18.620;2022-12-24T03:08:04;26.67;;;14.43;;
18114;SDS011;9184;54.390;18.620;2022-12-24T03:08:39;37.53;;;15.03;;
18114;SDS011;9184;54.390;18.620;2022-12-24T03:09:13;26.90;;;14.80;;
18114;SDS011;9184;54.390;18.620;2022-12-24T03:09:50;24.50;;;14.23;;
18114;SDS011;9184;54.390;18.620;2022-12-24T03:10:26;28.67;;;14.90;;
18114;SDS011;9184;54.390;18.620;2022-12-24T03:10:59;20.63;;;14.17;;
18114;SDS011;9184;54.390;18.620;2022-12-24T03:11:30;37.13;;;15.87;;
18114;SDS011;9184;54.390;18.620;2022-12-24T03:12:03;41.47;;;16.07;;
18114;SDS011;9184;54.390;18.620;2022-12-24T03:12:37;26.70;;;15.50;;
18114;SDS011;9184;54.390;18.620;2022-12-24T03:13:09;53.40;;;16.63;;
18114;SDS011;9184;54.390;18.620;2022-12-24T03:13:42;26.67;;;14.97;;
18114;SDS011;9184;54.390;18.620;2022-12-24T03:14:13;27.60;;;15.77;;
18114;SDS011;9184;54.390;18.620;2022-12-24T03:14:45;30.07;;;15.40;;
18114;SDS011;9184;54.390;18.620;2022-12-24T03:15:18;26.27;;;14.75;;